sensor_id;sensor_type;location;lat;lon;timestamp;P1;durP1;ratioP1;P2;durP2;ratioP2
8423;SDS011;4249;49.072;9.770;2022-08-25T00:02:13;7.78;;;6.40;;
8423;SDS011;4249;49.072;9.770;2022-08-25T00:05:00;10.07;;;8.10;;
8423;SDS011;4249;49.072;9.770;2022-08-25T00:07:49;8.85;;;7.05;;
8423;SDS011;4249;49.072;9.770;2022-08-25T00:10:37;8.88;;;7.18;;
8423;SDS011;4249;49.072;9.770;2022-08-25T00:13:26;6.90;;;6.20;;
8423;SDS011;4249;49.072;9.770;2022-08-25T00:16:14;11.05;;;6.15;;
8423;SDS011;4249;49.072;9.770;2022-08-25T00:19:04;7.47;;;6.07;;
8423;SDS011;4249;49.072;9.770;2022-08-25T00:21:55;7.78;;;5.70;;
8423;SDS011;4249;49.072;9.770;2022-08-25T00:24:42;9.65;;;6.35;;
8423;SDS011;4249;49.072;9.770;2022-08-25T00:27:31;11.93;;;6.47;;
8423;SDS011;4249;49.072;9.770;2022-08-25T00:30:18;7.75;;;6.32;;
8423;SDS011;4249;49.072;9.770;2022-08-25T00:33:06;7.72;;;6.70;;
8423;SDS011;4249;49.072;9.770;2022-08-25T00:35:53;8.27;;;6.20;;
8423;SDS011;4249;49.072;9.770;2022-08-25T00:38:41;9.10;;;6.40;;
8423;SDS011;4249;49.072;9.770;2022-08-25T00:41:29;10.57;;;7.50;;
8423;SDS011;4249;49.072;9.770;2022-08-25T00:44:19;8.93;;;7.70;;
8423;SDS011;4249;49.072;9.770;2022-08-25T00:47:06;13.38;;;8.05;;
8423;SDS011;4249;49.072;9.770;2022-08-25T00:49:54;10.32;;;8.30;;
8423;SDS011;4249;49.072;9.770;2022-08-25T00:52:45;12.02;;;8.20;;
8423;SDS011;4249;49.072;9.770;2022-08-25T00:55:36;8.55;;;7.50;;
8423;SDS011;4249;49.072;9.770;2022-08-25T00:58:27;9.13;;;7.65;;
8423;SDS011;4249;49.072;9.770;2022-08-25T01:01:19;10.50;;;7.80;;
8423;SDS011;4249;49.072;9.770;2022-08-25T01:04:06;7.63;;;6.82;;
8423;SDS011;4249;49.072;9.770;2022-08-25T01:06:54;7.85;;;6.63;;
8423;SDS011;4249;49.072;9.770;2022-08-25T01:09:44;7.78;;;6.40;;
8423;SDS011;4249;49.072;9.770;2022-08-25T01:12:33;7.78;;;6.97;;
8423;SDS011;4249;49.072;9.770;2022-08-25T01:15:21;8.18;;;7.28;;
8423;SDS011;4249;49.072;9.770;2022-08-25T01:18:10;8.48;;;7.43;;
8423;SDS011;4249;49.072;9.770;2022-08-25T01:20:59;9.25;;;7.20;;
8423;SDS011;4249;49.072;9.770;2022-08-25T01:23:46;10.38;;;7.30;;
8423;SDS011;4249;49.072;9.770;2022-08-25T01:26:35;9.90;;;6.90;;
8423;SDS011;4249;49.072;9.770;2022-08-25T01:29:22;10.90;;;8.23;;
8423;SDS011;4249;49.072;9.770;2022-08-25T01:32:11;9.18;;;7.50;;
8423;SDS011;4249;49.072;9.770;2022-08-25T01:34:59;10.13;;;7.43;;
8423;SDS011;4249;49.072;9.770;2022-08-25T01:37:48;10.15;;;8.05;;
8423;SDS011;4249;49.072;9.770;2022-08-25T01:40:35;11.02;;;8.23;;
8423;SDS011;4249;49.072;9.770;2022-08-25T01:43:26;8.98;;;7.30;;
8423;SDS011;4249;49.072;9.770;2022-08-25T01:46:21;11.63;;;7.47;;
8423;SDS011;4249;49.072;9.770;2022-08-25T01:49:09;9.30;;;7.97;;
8423;SDS011;4249;49.072;9.770;2022-08-25T01:51:56;11.48;;;8.13;;
8423;SDS011;4249;49.072;9.770;2022-08-25T01:54:50;10.15;;;8.52;;
8423;SDS011;4249;49.072;9.770;2022-08-25T01:57:37;12.57;;;8.30;;
8423;SDS011;4249;49.072;9.770;2022-08-25T02:00:24;9.20;;;7.90;;
8423;SDS011;4249;49.072;9.770;2022-08-25T02:03:18;11.55;;;8.52;;
8423;SDS011;4249;49.072;9.770;2022-08-25T02:06:10;12.10;;;8.90;;
8423;SDS011;4249;49.072;9.770;2022-08-25T02:08:58;14.52;;;9.98;;
8423;SDS011;4249;49.072;9.770;2022-08-25T02:11:54;11.05;;;9.27;;
8423;SDS011;4249;49.072;9.770;2022-08-25T02:14:41;11.38;;;9.20;;
8423;SDS011;4249;49.072;9.770;2022-08-25T02:17:29;11.00;;;8.75;;
8423;SDS011;4249;49.072;9.770;2022-08-25T02:20:16;11.20;;;8.73;;
8423;SDS011;4249;49.072;9.770;2022-08-25T02:23:03;12.75;;;9.75;;
8423;SDS011;4249;49.072;9.770;2022-08-25T02:25:51;11.82;;;9.82;;
8423;SDS011;4249;49.072;9.770;2022-08-25T02:28:40;12.25;;;8.88;;
8423;SDS011;4249;49.072;9.770;2022-08-25T02:31:28;12.23;;;9.68;;
8423;SDS011;4249;49.072;9.770;2022-08-25T02:34:15;12.82;;;9.57;;
8423;SDS011;4249;49.072;9.770;2022-08-25T02:37:02;13.15;;;10.20;;
8423;SDS011;4249;49.072;9.770;2022-08-25T02:39:50;12.63;;;9.93;;
8423;SDS011;4249;49.072;9.770;2022-08-25T02:42:37;11.57;;;8.93;;
8423;SDS011;4249;49.072;9.770;2022-08-25T02:45:25;15.05;;;10.77;;
8423;SDS011;4249;49.072;9.770;2022-08-25T02:48:13;11.55;;;9.68;;
8423;SDS011;4249;49.072;9.770;2022-08-25T02:51:00;12.80;;;10.15;;
8423;SDS011;4249;49.072;9.770;2022-08-25T02:53:47;13.23;;;9.70;;
8423;SDS011;4249;49.072;9.770;2022-08-25T02:56:35;11.10;;;9.55;;
8423;SDS011;4249;49.072;9.770;2022-08-25T02:59:22;12.57;;;10.13;;
8423;SDS011;4249;49.072;9.770;2022-08-25T03:02:10;13.75;;;10.55;;
8423;SDS011;4249;49.072;9.770;2022-08-25T03:04:58;11.15;;;9.88;;
8423;SDS011;4249;49.072;9.770;2022-08-25T03:07:45;11.52;;;9.63;;
8423;SDS011;4249;49.072;9.770;2022-08-25T03:10:32;12.70;;;10.50;;
8423;SDS011;4249;49.072;9.770;2022-08-25T03:13:20;14.20;;;10.43;;
8423;SDS011;4249;49.072;9.770;2022-08-25T03:16:07;10.80;;;8.88;;
8423;SDS011;4249;49.072;9.770;2022-08-25T03:18:56;14.00;;;9.32;;
8423;SDS011;4249;49.072;9.770;2022-08-25T03:21:44;12.85;;;10.15;;
8423;SDS011;4249;49.072;9.770;2022-08-25T03:24:32;12.32;;;10.45;;
8423;SDS011;4249;49.072;9.770;2022-08-25T03:27:19;14.57;;;11.65;;
8423;SDS011;4249;49.072;9.770;2022-08-25T03:30:06;17.45;;;12.02;;
8423;SDS011;4249;49.072;9.770;2022-08-25T03:32:54;15.82;;;9.68;;
8423;SDS011;4249;49.072;9.770;2022-08-25T03:35:43;16.58;;;10.10;;
8423;SDS011;4249;49.072;9.770;2022-08-25T03:38:31;12.40;;;9.70;;
8423;SDS011;4249;49.072;9.770;2022-08-25T03:41:19;12.55;;;9.52;;
8423;SDS011;4249;49.072;9.770;2022-08-25T03:44:08;13.20;;;9.95;;
8423;SDS011;4249;49.072;9.770;2022-08-25T03:46:55;11.35;;;9.30;;
8423;SDS011;4249;49.072;9.770;2022-08-25T03:49:42;14.18;;;10.43;;
8423;SDS011;4249;49.072;9.770;2022-08-25T03:52:31;14.43;;;11.05;;
8423;SDS011;4249;49.072;9.770;2022-08-25T03:55:18;14.07;;;10.85;;
8423;SDS011;4249;49.072;9.770;2022-08-25T03:58:07;16.40;;;11.30;;
8423;SDS011;4249;49.072;9.770;2022-08-25T04:00:54;15.52;;;11.50;;
8423;SDS011;4249;49.072;9.770;2022-08-25T04:03:44;15.20;;;11.05;;
8423;SDS011;4249;49.072;9.770;2022-08-25T04:06:32;12.97;;;10.20;;
8423;SDS011;4249;49.072;9.770;2022-08-25T04:09:20;12.60;;;10.23;;
8423;SDS011;4249;49.072;9.770;2022-08-25T04:12:07;13.18;;;9.55;;
8423;SDS011;4249;49.072;9.770;2022-08-25T04:14:55;12.40;;;9.77;;
8423;SDS011;4249;49.072;9.770;2022-08-25T04:17:42;11.90;;;9.65;;
8423;SDS011;4249;49.072;9.770;2022-08-25T04:20:29;13.60;;;10.07;;
8423;SDS011;4249;49.072;9.770;2022-08-25T04:23:17;13.35;;;10.48;;
8423;SDS011;4249;49.072;9.770;2022-08-25T04:26:08;17.93;;;12.43;;
8423;SDS011;4249;49.072;9.770;2022-08-25T04:28:57;15.00;;;11.37;;
8423;SDS011;4249;49.072;9.770;2022-08-25T04:31:46;13.80;;;10.40;;
8423;SDS011;4249;49.072;9.770;2022-08-25T04:34:34;12.80;;;9.85;;
8423;SDS011;4249;49.072;9.770;2022-08-25T04:37:21;11.73;;;9.90;;
8423;SDS011;4249;49.072;9.770;2022-08-25T04:40:09;11.13;;;9.90;;
8423;SDS011;4249;49.072;9.770;2022-08-25T04:42:58;13.10;;;11.10;;
8423;SDS011;4249;49.072;9.770;2022-08-25T04:45:45;16.50;;;12.50;;
8423;SDS011;4249;49.072;9.770;2022-08-25T04:48:33;18.07;;;12.93;;
8423;SDS011;4249;49.072;9.770;2022-08-25T04:51:21;13.85;;;11.32;;
8423;SDS011;4249;49.072;9.770;2022-08-25T04:54:10;15.93;;;11.30;;
8423;SDS011;4249;49.072;9.770;2022-08-25T04:57:01;15.57;;;10.47;;
8423;SDS011;4249;49.072;9.770;2022-08-25T04:59:49;14.37;;;10.37;;
8423;SDS011;4249;49.072;9.770;2022-08-25T05:02:17;11.85;;;9.93;;
8423;SDS011;4249;49.072;9.770;2022-08-25T05:04:44;13.30;;;10.45;;
8423;SDS011;4249;49.072;9.770;2022-08-25T05:07:11;12.27;;;10.18;;
8423;SDS011;4249;49.072;9.770;2022-08-25T05:09:38;14.27;;;10.82;;
8423;SDS011;4249;49.072;9.770;2022-08-25T05:12:05;12.30;;;9.95;;
8423;SDS011;4249;49.072;9.770;2022-08-25T05:14:33;13.20;;;9.70;;
8423;SDS011;4249;49.072;9.770;2022-08-25T05:17:01;13.07;;;10.40;;
8423;SDS011;4249;49.072;9.770;2022-08-25T05:19:28;12.73;;;10.35;;
8423;SDS011;4249;49.072;9.770;2022-08-25T05:21:55;13.73;;;10.73;;
8423;SDS011;4249;49.072;9.770;2022-08-25T05:24:22;12.87;;;9.77;;
8423;SDS011;4249;49.072;9.770;2022-08-25T05:26:49;11.90;;;9.50;;
8423;SDS011;4249;49.072;9.770;2022-08-25T05:29:16;11.17;;;9.53;;
8423;SDS011;4249;49.072;9.770;2022-08-25T05:31:43;12.63;;;9.45;;
8423;SDS011;4249;49.072;9.770;2022-08-25T05:34:12;14.27;;;11.23;;
8423;SDS011;4249;49.072;9.770;2022-08-25T05:36:39;14.93;;;11.55;;
8423;SDS011;4249;49.072;9.770;2022-08-25T05:39:07;14.75;;;12.55;;
8423;SDS011;4249;49.072;9.770;2022-08-25T05:41:34;17.58;;;13.18;;
8423;SDS011;4249;49.072;9.770;2022-08-25T05:44:01;15.68;;;12.43;;
8423;SDS011;4249;49.072;9.770;2022-08-25T05:46:29;16.45;;;12.20;;
8423;SDS011;4249;49.072;9.770;2022-08-25T05:48:55;14.98;;;11.85;;
8423;SDS011;4249;49.072;9.770;2022-08-25T05:51:24;16.42;;;13.00;;
8423;SDS011;4249;49.072;9.770;2022-08-25T05:53:51;16.58;;;12.45;;
8423;SDS011;4249;49.072;9.770;2022-08-25T05:56:18;17.45;;;12.30;;
8423;SDS011;4249;49.072;9.770;2022-08-25T05:58:45;17.17;;;13.90;;
8423;SDS011;4249;49.072;9.770;2022-08-25T06:01:20;17.08;;;14.02;;
8423;SDS011;4249;49.072;9.770;2022-08-25T06:04:06;17.85;;;13.15;;
8423;SDS011;4249;49.072;9.770;2022-08-25T06:06:34;18.13;;;14.07;;
8423;SDS011;4249;49.072;9.770;2022-08-25T06:09:02;16.85;;;12.70;;
8423;SDS011;4249;49.072;9.770;2022-08-25T06:11:32;17.17;;;12.40;;
8423;SDS011;4249;49.072;9.770;2022-08-25T06:14:01;16.27;;;11.85;;
8423;SDS011;4249;49.072;9.770;2022-08-25T06:16:27;16.27;;;12.80;;
8423;SDS011;4249;49.072;9.770;2022-08-25T06:18:55;16.23;;;11.65;;
8423;SDS011;4249;49.072;9.770;2022-08-25T06:21:21;13.75;;;11.20;;
8423;SDS011;4249;49.072;9.770;2022-08-25T06:23:50;12.38;;;10.80;;
8423;SDS011;4249;49.072;9.770;2022-08-25T06:26:17;11.93;;;10.25;;
8423;SDS011;4249;49.072;9.770;2022-08-25T06:28:45;17.63;;;10.70;;
8423;SDS011;4249;49.072;9.770;2022-08-25T06:31:12;11.73;;;9.15;;
8423;SDS011;4249;49.072;9.770;2022-08-25T06:33:39;10.15;;;8.43;;
8423;SDS011;4249;49.072;9.770;2022-08-25T06:36:06;13.40;;;8.93;;
8423;SDS011;4249;49.072;9.770;2022-08-25T06:38:33;10.93;;;8.70;;
8423;SDS011;4249;49.072;9.770;2022-08-25T06:41:03;14.45;;;8.52;;
8423;SDS011;4249;49.072;9.770;2022-08-25T06:43:32;9.18;;;7.95;;
8423;SDS011;4249;49.072;9.770;2022-08-25T06:46:06;8.27;;;7.47;;
8423;SDS011;4249;49.072;9.770;2022-08-25T06:48:34;8.30;;;7.13;;
8423;SDS011;4249;49.072;9.770;2022-08-25T06:51:03;9.45;;;6.88;;
8423;SDS011;4249;49.072;9.770;2022-08-25T06:53:31;7.95;;;7.25;;
8423;SDS011;4249;49.072;9.770;2022-08-25T06:55:58;8.38;;;7.57;;
8423;SDS011;4249;49.072;9.770;2022-08-25T06:58:27;8.25;;;7.43;;
8423;SDS011;4249;49.072;9.770;2022-08-25T07:00:55;9.35;;;7.40;;
8423;SDS011;4249;49.072;9.770;2022-08-25T07:03:21;7.40;;;6.70;;
8423;SDS011;4249;49.072;9.770;2022-08-25T07:05:51;9.40;;;8.27;;
8423;SDS011;4249;49.072;9.770;2022-08-25T07:08:22;18.08;;;11.88;;
8423;SDS011;4249;49.072;9.770;2022-08-25T07:10:49;17.45;;;12.57;;
8423;SDS011;4249;49.072;9.770;2022-08-25T07:13:15;9.02;;;8.10;;
8423;SDS011;4249;49.072;9.770;2022-08-25T07:15:44;8.15;;;7.28;;
8423;SDS011;4249;49.072;9.770;2022-08-25T07:18:11;12.18;;;8.98;;
8423;SDS011;4249;49.072;9.770;2022-08-25T07:20:38;8.90;;;7.88;;
8423;SDS011;4249;49.072;9.770;2022-08-25T07:23:25;14.48;;;8.25;;
8423;SDS011;4249;49.072;9.770;2022-08-25T07:26:14;11.82;;;7.35;;
8423;SDS011;4249;49.072;9.770;2022-08-25T07:29:04;14.70;;;7.47;;
8423;SDS011;4249;49.072;9.770;2022-08-25T07:31:59;11.98;;;8.40;;
8423;SDS011;4249;49.072;9.770;2022-08-25T07:34:46;14.98;;;7.13;;
8423;SDS011;4249;49.072;9.770;2022-08-25T07:37:53;7.78;;;6.57;;
8423;SDS011;4249;49.072;9.770;2022-08-25T07:40:42;7.10;;;6.45;;
8423;SDS011;4249;49.072;9.770;2022-08-25T07:43:29;7.32;;;6.63;;
8423;SDS011;4249;49.072;9.770;2022-08-25T07:46:17;7.90;;;7.10;;
8423;SDS011;4249;49.072;9.770;2022-08-25T07:49:06;7.90;;;6.68;;
8423;SDS011;4249;49.072;9.770;2022-08-25T07:51:53;14.80;;;7.07;;
8423;SDS011;4249;49.072;9.770;2022-08-25T07:54:41;8.35;;;6.22;;
8423;SDS011;4249;49.072;9.770;2022-08-25T07:57:28;7.05;;;6.45;;
8423;SDS011;4249;49.072;9.770;2022-08-25T08:00:16;7.07;;;6.40;;
8423;SDS011;4249;49.072;9.770;2022-08-25T08:03:03;7.88;;;6.60;;
8423;SDS011;4249;49.072;9.770;2022-08-25T08:05:53;12.00;;;7.03;;
8423;SDS011;4249;49.072;9.770;2022-08-25T08:08:41;11.25;;;5.88;;
8423;SDS011;4249;49.072;9.770;2022-08-25T08:11:30;11.13;;;7.13;;
8423;SDS011;4249;49.072;9.770;2022-08-25T08:14:21;15.07;;;7.45;;
8423;SDS011;4249;49.072;9.770;2022-08-25T08:17:08;11.98;;;7.80;;
8423;SDS011;4249;49.072;9.770;2022-08-25T08:19:56;8.00;;;7.25;;
8423;SDS011;4249;49.072;9.770;2022-08-25T08:22:45;13.88;;;8.07;;
8423;SDS011;4249;49.072;9.770;2022-08-25T08:25:33;9.38;;;6.90;;
8423;SDS011;4249;49.072;9.770;2022-08-25T08:28:20;9.73;;;6.97;;
8423;SDS011;4249;49.072;9.770;2022-08-25T08:31:12;8.93;;;6.80;;
8423;SDS011;4249;49.072;9.770;2022-08-25T08:34:00;7.85;;;7.05;;
8423;SDS011;4249;49.072;9.770;2022-08-25T08:36:48;10.98;;;7.15;;
8423;SDS011;4249;49.072;9.770;2022-08-25T08:39:37;7.75;;;6.90;;
8423;SDS011;4249;49.072;9.770;2022-08-25T08:42:28;7.10;;;6.40;;
8423;SDS011;4249;49.072;9.770;2022-08-25T08:45:38;9.95;;;7.22;;
8423;SDS011;4249;49.072;9.770;2022-08-25T08:48:41;8.98;;;6.65;;
8423;SDS011;4249;49.072;9.770;2022-08-25T08:51:37;9.73;;;6.90;;
8423;SDS011;4249;49.072;9.770;2022-08-25T08:54:35;6.75;;;6.05;;
8423;SDS011;4249;49.072;9.770;2022-08-25T08:57:27;9.45;;;6.20;;
8423;SDS011;4249;49.072;9.770;2022-08-25T09:00:17;9.93;;;5.63;;
8423;SDS011;4249;49.072;9.770;2022-08-25T09:03:05;7.32;;;5.68;;
8423;SDS011;4249;49.072;9.770;2022-08-25T09:05:55;5.38;;;4.88;;
8423;SDS011;4249;49.072;9.770;2022-08-25T09:08:46;6.03;;;5.38;;
8423;SDS011;4249;49.072;9.770;2022-08-25T09:11:40;5.43;;;4.90;;
8423;SDS011;4249;49.072;9.770;2022-08-25T09:14:41;5.25;;;4.55;;
8423;SDS011;4249;49.072;9.770;2022-08-25T09:17:55;5.93;;;5.32;;
8423;SDS011;4249;49.072;9.770;2022-08-25T09:20:58;4.47;;;4.07;;
8423;SDS011;4249;49.072;9.770;2022-08-25T09:24:01;9.70;;;6.18;;
8423;SDS011;4249;49.072;9.770;2022-08-25T09:27:01;10.25;;;6.00;;
8423;SDS011;4249;49.072;9.770;2022-08-25T09:29:59;30.08;;;13.80;;
8423;SDS011;4249;49.072;9.770;2022-08-25T09:32:51;56.08;;;41.03;;
8423;SDS011;4249;49.072;9.770;2022-08-25T09:35:48;6.57;;;5.88;;
8423;SDS011;4249;49.072;9.770;2022-08-25T09:38:37;26.98;;;24.13;;
8423;SDS011;4249;49.072;9.770;2022-08-25T09:41:35;40.03;;;36.30;;
8423;SDS011;4249;49.072;9.770;2022-08-25T09:44:33;45.50;;;40.95;;
8423;SDS011;4249;49.072;9.770;2022-08-25T09:47:27;37.30;;;33.28;;
8423;SDS011;4249;49.072;9.770;2022-08-25T09:50:16;17.05;;;15.50;;
8423;SDS011;4249;49.072;9.770;2022-08-25T09:53:11;21.90;;;19.90;;
8423;SDS011;4249;49.072;9.770;2022-08-25T09:56:02;14.65;;;13.25;;
8423;SDS011;4249;49.072;9.770;2022-08-25T09:58:52;12.23;;;10.88;;
8423;SDS011;4249;49.072;9.770;2022-08-25T10:01:47;5.20;;;4.63;;
8423;SDS011;4249;49.072;9.770;2022-08-25T10:04:37;7.57;;;6.80;;
8423;SDS011;4249;49.072;9.770;2022-08-25T10:07:26;6.90;;;6.20;;
8423;SDS011;4249;49.072;9.770;2022-08-25T10:10:16;6.07;;;4.90;;
8423;SDS011;4249;49.072;9.770;2022-08-25T10:13:11;7.97;;;6.90;;
8423;SDS011;4249;49.072;9.770;2022-08-25T10:16:04;5.25;;;4.75;;
8423;SDS011;4249;49.072;9.770;2022-08-25T10:19:04;7.38;;;5.18;;
8423;SDS011;4249;49.072;9.770;2022-08-25T10:22:06;4.63;;;4.20;;
8423;SDS011;4249;49.072;9.770;2022-08-25T10:24:55;5.47;;;4.35;;
8423;SDS011;4249;49.072;9.770;2022-08-25T10:27:44;7.03;;;4.50;;
8423;SDS011;4249;49.072;9.770;2022-08-25T10:30:43;5.28;;;4.75;;
8423;SDS011;4249;49.072;9.770;2022-08-25T10:33:47;5.03;;;4.50;;
8423;SDS011;4249;49.072;9.770;2022-08-25T10:36:48;4.72;;;4.32;;
8423;SDS011;4249;49.072;9.770;2022-08-25T10:39:42;4.85;;;4.40;;
8423;SDS011;4249;49.072;9.770;2022-08-25T10:42:33;16.98;;;5.85;;
8423;SDS011;4249;49.072;9.770;2022-08-25T10:45:25;35.63;;;7.63;;
8423;SDS011;4249;49.072;9.770;2022-08-25T10:48:33;21.20;;;6.88;;
8423;SDS011;4249;49.072;9.770;2022-08-25T10:51:43;14.57;;;5.45;;
8423;SDS011;4249;49.072;9.770;2022-08-25T10:54:39;10.65;;;5.53;;
8423;SDS011;4249;49.072;9.770;2022-08-25T10:57:34;10.43;;;5.18;;
8423;SDS011;4249;49.072;9.770;2022-08-25T11:00:26;5.28;;;4.78;;
8423;SDS011;4249;49.072;9.770;2022-08-25T11:03:25;5.10;;;4.50;;
8423;SDS011;4249;49.072;9.770;2022-08-25T11:06:24;11.20;;;5.20;;
8423;SDS011;4249;49.072;9.770;2022-08-25T11:09:19;4.68;;;4.28;;
8423;SDS011;4249;49.072;9.770;2022-08-25T11:12:09;4.53;;;4.13;;
8423;SDS011;4249;49.072;9.770;2022-08-25T11:15:01;4.90;;;4.38;;
8423;SDS011;4249;49.072;9.770;2022-08-25T11:17:52;15.18;;;5.05;;
8423;SDS011;4249;49.072;9.770;2022-08-25T11:20:44;5.15;;;4.38;;
8423;SDS011;4249;49.072;9.770;2022-08-25T11:23:36;8.07;;;5.25;;
8423;SDS011;4249;49.072;9.770;2022-08-25T11:26:29;6.13;;;5.05;;
8423;SDS011;4249;49.072;9.770;2022-08-25T11:29:20;5.50;;;4.88;;
8423;SDS011;4249;49.072;9.770;2022-08-25T11:32:10;12.95;;;5.28;;
8423;SDS011;4249;49.072;9.770;2022-08-25T11:34:59;10.00;;;5.32;;
8423;SDS011;4249;49.072;9.770;2022-08-25T11:37:52;4.97;;;4.47;;
8423;SDS011;4249;49.072;9.770;2022-08-25T11:40:51;4.72;;;4.32;;
8423;SDS011;4249;49.072;9.770;2022-08-25T11:43:53;5.78;;;5.10;;
8423;SDS011;4249;49.072;9.770;2022-08-25T11:47:20;5.25;;;4.65;;
8423;SDS011;4249;49.072;9.770;2022-08-25T11:50:26;6.45;;;4.85;;
8423;SDS011;4249;49.072;9.770;2022-08-25T11:52:55;6.63;;;5.30;;
8423;SDS011;4249;49.072;9.770;2022-08-25T11:55:27;6.88;;;4.95;;
8423;SDS011;4249;49.072;9.770;2022-08-25T11:58:16;5.43;;;4.90;;
8423;SDS011;4249;49.072;9.770;2022-08-25T12:00:56;6.45;;;5.00;;
8423;SDS011;4249;49.072;9.770;2022-08-25T12:06:22;5.90;;;5.00;;
8423;SDS011;4249;49.072;9.770;2022-08-25T12:08:52;6.85;;;5.03;;
8423;SDS011;4249;49.072;9.770;2022-08-25T12:11:57;6.82;;;5.38;;
8423;SDS011;4249;49.072;9.770;2022-08-25T12:14:46;6.78;;;5.43;;
8423;SDS011;4249;49.072;9.770;2022-08-25T12:17:37;6.32;;;5.25;;
8423;SDS011;4249;49.072;9.770;2022-08-25T12:26:55;6.20;;;5.13;;
8423;SDS011;4249;49.072;9.770;2022-08-25T12:29:46;6.45;;;5.13;;
8423;SDS011;4249;49.072;9.770;2022-08-25T12:32:44;7.60;;;5.40;;
8423;SDS011;4249;49.072;9.770;2022-08-25T12:35:48;5.88;;;5.35;;
8423;SDS011;4249;49.072;9.770;2022-08-25T12:38:41;5.40;;;4.90;;
8423;SDS011;4249;49.072;9.770;2022-08-25T12:41:30;5.80;;;5.20;;
8423;SDS011;4249;49.072;9.770;2022-08-25T12:44:19;6.03;;;5.03;;
8423;SDS011;4249;49.072;9.770;2022-08-25T12:47:27;5.70;;;5.20;;
8423;SDS011;4249;49.072;9.770;2022-08-25T12:50:28;6.35;;;5.35;;
8423;SDS011;4249;49.072;9.770;2022-08-25T12:53:27;7.25;;;5.82;;
8423;SDS011;4249;49.072;9.770;2022-08-25T12:56:21;11.48;;;6.07;;
8423;SDS011;4249;49.072;9.770;2022-08-25T12:59:17;64.43;;;9.75;;
8423;SDS011;4249;49.072;9.770;2022-08-25T13:02:11;18.45;;;6.43;;
8423;SDS011;4249;49.072;9.770;2022-08-25T13:05:41;53.60;;;9.75;;
8423;SDS011;4249;49.072;9.770;2022-08-25T13:08:48;13.10;;;5.70;;
8423;SDS011;4249;49.072;9.770;2022-08-25T13:11:59;15.38;;;6.47;;
8423;SDS011;4249;49.072;9.770;2022-08-25T13:14:55;7.60;;;5.47;;
8423;SDS011;4249;49.072;9.770;2022-08-25T13:17:44;5.65;;;5.13;;
8423;SDS011;4249;49.072;9.770;2022-08-25T13:20:31;9.57;;;5.82;;
8423;SDS011;4249;49.072;9.770;2022-08-25T13:23:23;5.57;;;5.00;;
8423;SDS011;4249;49.072;9.770;2022-08-25T13:26:13;6.50;;;5.90;;
8423;SDS011;4249;49.072;9.770;2022-08-25T13:29:10;10.82;;;6.18;;
8423;SDS011;4249;49.072;9.770;2022-08-25T13:32:00;8.38;;;5.72;;
8423;SDS011;4249;49.072;9.770;2022-08-25T13:34:49;11.27;;;5.93;;
8423;SDS011;4249;49.072;9.770;2022-08-25T13:37:38;6.95;;;4.85;;
8423;SDS011;4249;49.072;9.770;2022-08-25T13:40:28;7.28;;;5.20;;
8423;SDS011;4249;49.072;9.770;2022-08-25T13:43:18;6.47;;;5.18;;
8423;SDS011;4249;49.072;9.770;2022-08-25T13:46:05;5.80;;;4.88;;
8423;SDS011;4249;49.072;9.770;2022-08-25T13:49:00;7.60;;;5.15;;
8423;SDS011;4249;49.072;9.770;2022-08-25T13:51:50;7.22;;;5.00;;
8423;SDS011;4249;49.072;9.770;2022-08-25T13:54:39;6.20;;;4.82;;
8423;SDS011;4249;49.072;9.770;2022-08-25T13:57:30;6.70;;;4.68;;
8423;SDS011;4249;49.072;9.770;2022-08-25T14:00:27;5.50;;;4.93;;
8423;SDS011;4249;49.072;9.770;2022-08-25T14:03:29;6.18;;;5.05;;
8423;SDS011;4249;49.072;9.770;2022-08-25T14:06:19;6.85;;;5.13;;
8423;SDS011;4249;49.072;9.770;2022-08-25T14:09:11;6.22;;;4.90;;
8423;SDS011;4249;49.072;9.770;2022-08-25T14:12:02;8.75;;;5.15;;
8423;SDS011;4249;49.072;9.770;2022-08-25T14:14:57;5.78;;;5.10;;
8423;SDS011;4249;49.072;9.770;2022-08-25T14:17:58;5.18;;;4.68;;
8423;SDS011;4249;49.072;9.770;2022-08-25T14:20:47;6.82;;;4.80;;
8423;SDS011;4249;49.072;9.770;2022-08-25T14:23:38;6.82;;;5.18;;
8423;SDS011;4249;49.072;9.770;2022-08-25T14:26:25;6.60;;;4.80;;
8423;SDS011;4249;49.072;9.770;2022-08-25T14:29:13;6.93;;;4.80;;
8423;SDS011;4249;49.072;9.770;2022-08-25T14:32:02;7.32;;;4.50;;
8423;SDS011;4249;49.072;9.770;2022-08-25T14:34:50;8.30;;;4.70;;
8423;SDS011;4249;49.072;9.770;2022-08-25T14:37:38;14.85;;;5.55;;
8423;SDS011;4249;49.072;9.770;2022-08-25T14:40:25;8.48;;;5.43;;
8423;SDS011;4249;49.072;9.770;2022-08-25T14:43:12;5.20;;;4.68;;
8423;SDS011;4249;49.072;9.770;2022-08-25T14:46:00;18.02;;;14.95;;
8423;SDS011;4249;49.072;9.770;2022-08-25T14:49:06;6.22;;;4.85;;
8423;SDS011;4249;49.072;9.770;2022-08-25T14:51:57;5.53;;;4.72;;
8423;SDS011;4249;49.072;9.770;2022-08-25T14:54:49;8.88;;;4.60;;
8423;SDS011;4249;49.072;9.770;2022-08-25T14:57:37;9.68;;;5.15;;
8423;SDS011;4249;49.072;9.770;2022-08-25T15:00:24;4.72;;;4.22;;
8423;SDS011;4249;49.072;9.770;2022-08-25T15:03:11;4.80;;;4.40;;
8423;SDS011;4249;49.072;9.770;2022-08-25T15:06:02;6.05;;;4.40;;
8423;SDS011;4249;49.072;9.770;2022-08-25T15:08:51;4.20;;;3.88;;
8423;SDS011;4249;49.072;9.770;2022-08-25T15:11:53;16.95;;;6.80;;
8423;SDS011;4249;49.072;9.770;2022-08-25T15:14:41;9.07;;;4.57;;
8423;SDS011;4249;49.072;9.770;2022-08-25T15:17:29;6.03;;;4.15;;
8423;SDS011;4249;49.072;9.770;2022-08-25T15:20:16;5.55;;;4.15;;
8423;SDS011;4249;49.072;9.770;2022-08-25T15:23:05;6.13;;;4.32;;
8423;SDS011;4249;49.072;9.770;2022-08-25T15:25:53;8.38;;;4.38;;
8423;SDS011;4249;49.072;9.770;2022-08-25T15:28:43;5.00;;;4.15;;
8423;SDS011;4249;49.072;9.770;2022-08-25T15:31:32;6.55;;;4.35;;
8423;SDS011;4249;49.072;9.770;2022-08-25T15:34:20;5.07;;;4.00;;
8423;SDS011;4249;49.072;9.770;2022-08-25T15:37:09;4.85;;;4.25;;
8423;SDS011;4249;49.072;9.770;2022-08-25T15:39:59;5.30;;;4.43;;
8423;SDS011;4249;49.072;9.770;2022-08-25T15:42:47;4.70;;;4.00;;
8423;SDS011;4249;49.072;9.770;2022-08-25T15:45:34;6.43;;;4.82;;
8423;SDS011;4249;49.072;9.770;2022-08-25T15:48:22;5.45;;;4.40;;
8423;SDS011;4249;49.072;9.770;2022-08-25T15:51:09;4.72;;;3.85;;
8423;SDS011;4249;49.072;9.770;2022-08-25T15:53:57;4.40;;;4.00;;
8423;SDS011;4249;49.072;9.770;2022-08-25T15:56:46;4.70;;;4.10;;
8423;SDS011;4249;49.072;9.770;2022-08-25T15:59:33;13.20;;;4.82;;
8423;SDS011;4249;49.072;9.770;2022-08-25T16:02:20;12.38;;;5.10;;
8423;SDS011;4249;49.072;9.770;2022-08-25T16:05:08;6.57;;;4.40;;
8423;SDS011;4249;49.072;9.770;2022-08-25T16:07:56;4.57;;;3.70;;
8423;SDS011;4249;49.072;9.770;2022-08-25T16:10:43;5.40;;;4.13;;
8423;SDS011;4249;49.072;9.770;2022-08-25T16:13:31;5.97;;;4.35;;
8423;SDS011;4249;49.072;9.770;2022-08-25T16:16:19;5.53;;;4.22;;
8423;SDS011;4249;49.072;9.770;2022-08-25T16:19:08;5.78;;;4.55;;
8423;SDS011;4249;49.072;9.770;2022-08-25T16:21:56;5.03;;;4.38;;
8423;SDS011;4249;49.072;9.770;2022-08-25T16:24:44;4.65;;;4.25;;
8423;SDS011;4249;49.072;9.770;2022-08-25T16:27:32;5.55;;;4.72;;
8423;SDS011;4249;49.072;9.770;2022-08-25T16:30:20;5.00;;;4.00;;
8423;SDS011;4249;49.072;9.770;2022-08-25T16:33:08;6.22;;;4.35;;
8423;SDS011;4249;49.072;9.770;2022-08-25T16:36:02;4.72;;;4.32;;
8423;SDS011;4249;49.072;9.770;2022-08-25T16:38:50;17.92;;;7.68;;
8423;SDS011;4249;49.072;9.770;2022-08-25T16:41:38;8.57;;;5.22;;
8423;SDS011;4249;49.072;9.770;2022-08-25T16:44:25;6.88;;;5.13;;
8423;SDS011;4249;49.072;9.770;2022-08-25T16:47:14;6.43;;;5.13;;
8423;SDS011;4249;49.072;9.770;2022-08-25T16:50:01;41.38;;;22.05;;
8423;SDS011;4249;49.072;9.770;2022-08-25T16:52:49;31.42;;;16.60;;
8423;SDS011;4249;49.072;9.770;2022-08-25T16:55:58;25.65;;;12.48;;
8423;SDS011;4249;49.072;9.770;2022-08-25T16:58:46;16.63;;;10.20;;
8423;SDS011;4249;49.072;9.770;2022-08-25T17:01:34;10.05;;;6.70;;
8423;SDS011;4249;49.072;9.770;2022-08-25T17:04:23;15.02;;;8.55;;
8423;SDS011;4249;49.072;9.770;2022-08-25T17:07:11;5.85;;;5.25;;
8423;SDS011;4249;49.072;9.770;2022-08-25T17:09:59;10.10;;;6.80;;
8423;SDS011;4249;49.072;9.770;2022-08-25T17:12:47;5.65;;;4.97;;
8423;SDS011;4249;49.072;9.770;2022-08-25T17:15:37;14.00;;;7.20;;
8423;SDS011;4249;49.072;9.770;2022-08-25T17:18:26;6.40;;;5.78;;